sensor_id;sensor_type;location;lat;lon;timestamp;P1;durP1;ratioP1;P2;durP2;ratioP2
12212;SDS011;6169;44.158;22.788;2023-03-31T00:04:27;7.90;;;4.57;;
12212;SDS011;6169;44.158;22.788;2023-03-31T00:09:31;6.15;;;3.78;;
12212;SDS011;6169;44.158;22.788;2023-03-31T00:14:34;10.90;;;4.05;;
12212;SDS011;6169;44.158;22.788;2023-03-31T00:19:38;4.90;;;3.78;;
12212;SDS011;6169;44.158;22.788;2023-03-31T00:24:41;9.43;;;6.50;;
12212;SDS011;6169;44.158;22.788;2023-03-31T00:29:43;9.20;;;6.00;;
12212;SDS011;6169;44.158;22.788;2023-03-31T00:34:47;8.52;;;5.55;;
12212;SDS011;6169;44.158;22.788;2023-03-31T00:39:50;11.05;;;7.30;;
12212;SDS011;6169;44.158;22.788;2023-03-31T00:50:25;13.05;;;8.80;;
12212;SDS011;6169;44.158;22.788;2023-03-31T00:55:32;10.85;;;6.97;;
12212;SDS011;6169;44.158;22.788;2023-03-31T01:00:38;10.48;;;6.22;;
12212;SDS011;6169;44.158;22.788;2023-03-31T01:05:43;7.05;;;5.05;;
12212;SDS011;6169;44.158;22.788;2023-03-31T01:10:49;9.98;;;6.05;;
12212;SDS011;6169;44.158;22.788;2023-03-31T01:15:54;8.48;;;5.47;;
12212;SDS011;6169;44.158;22.788;2023-03-31T01:21:05;9.65;;;5.25;;
12212;SDS011;6169;44.158;22.788;2023-03-31T01:38:09;10.23;;;5.95;;
12212;SDS011;6169;44.158;22.788;2023-03-31T01:43:29;8.07;;;5.22;;
12212;SDS011;6169;44.158;22.788;2023-03-31T01:48:41;9.48;;;5.13;;
12212;SDS011;6169;44.158;22.788;2023-03-31T01:53:49;8.07;;;5.30;;
12212;SDS011;6169;44.158;22.788;2023-03-31T01:58:58;8.65;;;5.10;;
12212;SDS011;6169;44.158;22.788;2023-03-31T02:04:04;8.85;;;5.30;;
12212;SDS011;6169;44.158;22.788;2023-03-31T02:09:12;7.68;;;5.38;;
12212;SDS011;6169;44.158;22.788;2023-03-31T02:14:20;10.18;;;6.45;;
12212;SDS011;6169;44.158;22.788;2023-03-31T02:19:25;11.65;;;5.95;;
12212;SDS011;6169;44.158;22.788;2023-03-31T02:24:34;7.32;;;5.88;;
12212;SDS011;6169;44.158;22.788;2023-03-31T02:29:40;13.00;;;7.20;;
12212;SDS011;6169;44.158;22.788;2023-03-31T02:34:43;9.18;;;6.28;;
12212;SDS011;6169;44.158;22.788;2023-03-31T02:39:45;9.23;;;5.68;;
12212;SDS011;6169;44.158;22.788;2023-03-31T02:44:52;9.32;;;6.20;;
12212;SDS011;6169;44.158;22.788;2023-03-31T02:49:54;9.63;;;6.72;;
12212;SDS011;6169;44.158;22.788;2023-03-31T03:00:47;10.52;;;6.90;;
12212;SDS011;6169;44.158;22.788;2023-03-31T03:06:10;12.15;;;6.45;;
12212;SDS011;6169;44.158;22.788;2023-03-31T03:11:24;8.77;;;6.68;;
12212;SDS011;6169;44.158;22.788;2023-03-31T03:16:34;11.18;;;6.28;;
12212;SDS011;6169;44.158;22.788;2023-03-31T03:21:39;8.77;;;6.15;;
12212;SDS011;6169;44.158;22.788;2023-03-31T03:26:42;10.88;;;7.20;;
12212;SDS011;6169;44.158;22.788;2023-03-31T03:31:46;9.93;;;6.32;;
12212;SDS011;6169;44.158;22.788;2023-03-31T03:36:48;17.77;;;8.73;;
12212;SDS011;6169;44.158;22.788;2023-03-31T03:41:51;15.15;;;8.35;;
12212;SDS011;6169;44.158;22.788;2023-03-31T03:46:54;16.60;;;10.43;;
12212;SDS011;6169;44.158;22.788;2023-03-31T03:51:57;16.73;;;10.73;;
12212;SDS011;6169;44.158;22.788;2023-03-31T03:56:59;50.83;;;26.75;;
12212;SDS011;6169;44.158;22.788;2023-03-31T04:02:03;122.72;;;52.80;;
12212;SDS011;6169;44.158;22.788;2023-03-31T04:07:05;27.00;;;14.23;;
12212;SDS011;6169;44.158;22.788;2023-03-31T04:12:07;26.00;;;14.73;;
12212;SDS011;6169;44.158;22.788;2023-03-31T04:17:11;17.75;;;10.65;;
12212;SDS011;6169;44.158;22.788;2023-03-31T04:22:15;17.98;;;11.35;;
12212;SDS011;6169;44.158;22.788;2023-03-31T04:27:19;13.75;;;10.60;;
12212;SDS011;6169;44.158;22.788;2023-03-31T04:32:23;14.77;;;8.77;;
12212;SDS011;6169;44.158;22.788;2023-03-31T04:37:25;12.05;;;8.68;;
12212;SDS011;6169;44.158;22.788;2023-03-31T04:42:33;12.00;;;7.43;;
12212;SDS011;6169;44.158;22.788;2023-03-31T04:47:38;7.45;;;4.20;;
12212;SDS011;6169;44.158;22.788;2023-03-31T04:52:40;9.40;;;5.45;;
12212;SDS011;6169;44.158;22.788;2023-03-31T04:57:42;6.78;;;5.35;;
12212;SDS011;6169;44.158;22.788;2023-03-31T05:02:45;7.53;;;4.18;;
12212;SDS011;6169;44.158;22.788;2023-03-31T05:07:48;8.07;;;4.68;;
12212;SDS011;6169;44.158;22.788;2023-03-31T05:12:50;5.18;;;3.85;;
12212;SDS011;6169;44.158;22.788;2023-03-31T05:17:54;7.68;;;5.63;;
12212;SDS011;6169;44.158;22.788;2023-03-31T05:22:58;10.40;;;5.50;;
12212;SDS011;6169;44.158;22.788;2023-03-31T05:28:00;9.20;;;4.72;;
12212;SDS011;6169;44.158;22.788;2023-03-31T05:33:04;8.98;;;4.32;;
12212;SDS011;6169;44.158;22.788;2023-03-31T05:38:06;4.80;;;3.17;;
12212;SDS011;6169;44.158;22.788;2023-03-31T05:43:09;7.63;;;3.90;;
12212;SDS011;6169;44.158;22.788;2023-03-31T05:48:12;8.02;;;5.40;;
12212;SDS011;6169;44.158;22.788;2023-03-31T05:53:14;8.48;;;4.95;;
12212;SDS011;6169;44.158;22.788;2023-03-31T05:58:16;8.52;;;4.38;;
12212;SDS011;6169;44.158;22.788;2023-03-31T06:03:20;9.18;;;4.40;;
12212;SDS011;6169;44.158;22.788;2023-03-31T06:08:22;13.18;;;5.53;;
12212;SDS011;6169;44.158;22.788;2023-03-31T06:13:24;4.53;;;4.05;;
12212;SDS011;6169;44.158;22.788;2023-03-31T06:18:28;8.35;;;4.85;;
12212;SDS011;6169;44.158;22.788;2023-03-31T06:23:32;6.90;;;3.50;;
12212;SDS011;6169;44.158;22.788;2023-03-31T06:28:35;8.45;;;4.13;;
12212;SDS011;6169;44.158;22.788;2023-03-31T06:33:39;4.22;;;3.53;;
12212;SDS011;6169;44.158;22.788;2023-03-31T06:38:42;5.70;;;4.13;;
12212;SDS011;6169;44.158;22.788;2023-03-31T06:43:45;6.82;;;3.33;;
12212;SDS011;6169;44.158;22.788;2023-03-31T06:48:48;6.53;;;3.03;;
12212;SDS011;6169;44.158;22.788;2023-03-31T06:53:50;5.60;;;3.30;;
12212;SDS011;6169;44.158;22.788;2023-03-31T06:58:53;5.57;;;3.92;;
12212;SDS011;6169;44.158;22.788;2023-03-31T07:03:56;6.32;;;4.05;;
12212;SDS011;6169;44.158;22.788;2023-03-31T07:08:58;6.72;;;3.72;;
12212;SDS011;6169;44.158;22.788;2023-03-31T07:14:00;4.55;;;4.15;;
12212;SDS011;6169;44.158;22.788;2023-03-31T07:19:04;5.75;;;3.00;;
12212;SDS011;6169;44.158;22.788;2023-03-31T07:24:07;4.60;;;2.92;;
12212;SDS011;6169;44.158;22.788;2023-03-31T07:29:09;4.57;;;3.33;;
12212;SDS011;6169;44.158;22.788;2023-03-31T07:34:13;5.47;;;2.92;;
12212;SDS011;6169;44.158;22.788;2023-03-31T07:39:15;4.65;;;3.00;;
12212;SDS011;6169;44.158;22.788;2023-03-31T07:44:17;2.17;;;1.92;;
12212;SDS011;6169;44.158;22.788;2023-03-31T07:49:22;3.85;;;2.45;;
12212;SDS011;6169;44.158;22.788;2023-03-31T07:54:24;3.83;;;2.70;;
12212;SDS011;6169;44.158;22.788;2023-03-31T07:59:26;7.28;;;3.20;;
12212;SDS011;6169;44.158;22.788;2023-03-31T08:04:31;3.83;;;1.73;;
12212;SDS011;6169;44.158;22.788;2023-03-31T08:09:33;6.22;;;2.78;;
12212;SDS011;6169;44.158;22.788;2023-03-31T08:14:35;2.85;;;1.58;;
12212;SDS011;6169;44.158;22.788;2023-03-31T08:19:39;3.38;;;1.63;;
12212;SDS011;6169;44.158;22.788;2023-03-31T08:24:41;3.03;;;1.80;;
12212;SDS011;6169;44.158;22.788;2023-03-31T08:29:43;1.80;;;1.70;;
12212;SDS011;6169;44.158;22.788;2023-03-31T08:34:47;2.67;;;2.00;;
12212;SDS011;6169;44.158;22.788;2023-03-31T08:39:49;4.22;;;2.05;;
12212;SDS011;6169;44.158;22.788;2023-03-31T08:44:53;2.60;;;1.88;;
12212;SDS011;6169;44.158;22.788;2023-03-31T08:50:02;3.05;;;1.10;;
12212;SDS011;6169;44.158;22.788;2023-03-31T08:55:10;2.00;;;1.70;;
12212;SDS011;6169;44.158;22.788;2023-03-31T09:05:31;1.40;;;1.30;;
12212;SDS011;6169;44.158;22.788;2023-03-31T09:10:48;3.85;;;1.45;;
12212;SDS011;6169;44.158;22.788;2023-03-31T09:15:57;1.50;;;1.13;;
12212;SDS011;6169;44.158;22.788;2023-03-31T09:21:05;1.98;;;1.58;;
12212;SDS011;6169;44.158;22.788;2023-03-31T09:26:19;2.45;;;1.63;;
12212;SDS011;6169;44.158;22.788;2023-03-31T09:31:26;9.27;;;1.77;;
12212;SDS011;6169;44.158;22.788;2023-03-31T09:36:30;1.85;;;1.25;;
12212;SDS011;6169;44.158;22.788;2023-03-31T09:41:33;1.92;;;1.38;;
12212;SDS011;6169;44.158;22.788;2023-03-31T09:46:36;3.10;;;1.40;;
12212;SDS011;6169;44.158;22.788;2023-03-31T09:51:41;1.83;;;1.20;;
12212;SDS011;6169;44.158;22.788;2023-03-31T09:56:49;2.80;;;1.48;;
12212;SDS011;6169;44.158;22.788;2023-03-31T10:01:54;2.85;;;1.10;;
12212;SDS011;6169;44.158;22.788;2023-03-31T10:07:02;10.30;;;3.25;;
12212;SDS011;6169;44.158;22.788;2023-03-31T10:12:08;9.68;;;2.72;;
12212;SDS011;6169;44.158;22.788;2023-03-31T10:17:20;3.30;;;1.13;;
12212;SDS011;6169;44.158;22.788;2023-03-31T10:22:28;3.72;;;1.27;;
12212;SDS011;6169;44.158;22.788;2023-03-31T10:27:31;5.05;;;1.90;;
12212;SDS011;6169;44.158;22.788;2023-03-31T10:32:37;3.60;;;0.88;;
12212;SDS011;6169;44.158;22.788;2023-03-31T10:37:43;2.40;;;1.42;;
12212;SDS011;6169;44.158;22.788;2023-03-31T10:42:48;1.98;;;1.02;;
12212;SDS011;6169;44.158;22.788;2023-03-31T10:47:59;1.25;;;1.15;;
12212;SDS011;6169;44.158;22.788;2023-03-31T10:53:03;1.77;;;1.05;;
12212;SDS011;6169;44.158;22.788;2023-03-31T10:58:17;1.33;;;0.95;;
12212;SDS011;6169;44.158;22.788;2023-03-31T11:03:35;4.63;;;1.42;;
12212;SDS011;6169;44.158;22.788;2023-03-31T11:08:50;3.90;;;1.35;;
12212;SDS011;6169;44.158;22.788;2023-03-31T11:14:00;1.30;;;0.90;;
12212;SDS011;6169;44.158;22.788;2023-03-31T11:19:15;1.30;;;0.98;;
12212;SDS011;6169;44.158;22.788;2023-03-31T11:24:32;1.85;;;1.17;;
12212;SDS011;6169;44.158;22.788;2023-03-31T11:29:43;1.90;;;1.52;;
12212;SDS011;6169;44.158;22.788;2023-03-31T11:34:55;3.63;;;2.43;;
12212;SDS011;6169;44.158;22.788;2023-03-31T11:40:17;6.97;;;5.65;;
12212;SDS011;6169;44.158;22.788;2023-03-31T11:45:30;6.40;;;2.97;;
12212;SDS011;6169;44.158;22.788;2023-03-31T11:50:36;3.67;;;1.83;;
12212;SDS011;6169;44.158;22.788;2023-03-31T11:55:43;9.13;;;6.07;;
12212;SDS011;6169;44.158;22.788;2023-03-31T12:00:50;10.15;;;4.35;;
12212;SDS011;6169;44.158;22.788;2023-03-31T12:05:54;2.58;;;2.05;;
12212;SDS011;6169;44.158;22.788;2023-03-31T12:11:04;3.03;;;2.17;;
12212;SDS011;6169;44.158;22.788;2023-03-31T12:16:10;7.28;;;2.42;;
12212;SDS011;6169;44.158;22.788;2023-03-31T12:21:16;3.80;;;2.28;;
12212;SDS011;6169;44.158;22.788;2023-03-31T12:26:26;6.95;;;2.33;;
12212;SDS011;6169;44.158;22.788;2023-03-31T12:31:37;7.85;;;3.38;;
12212;SDS011;6169;44.158;22.788;2023-03-31T12:36:48;2.40;;;2.20;;
12212;SDS011;6169;44.158;22.788;2023-03-31T12:42:06;4.28;;;1.92;;
12212;SDS011;6169;44.158;22.788;2023-03-31T12:47:39;4.20;;;2.78;;
12212;SDS011;6169;44.158;22.788;2023-03-31T12:52:55;2.80;;;1.30;;
12212;SDS011;6169;44.158;22.788;2023-03-31T13:03:53;3.00;;;1.88;;
12212;SDS011;6169;44.158;22.788;2023-03-31T13:09:12;2.30;;;1.45;;
12212;SDS011;6169;44.158;22.788;2023-03-31T13:14:46;4.00;;;1.83;;
12212;SDS011;6169;44.158;22.788;2023-03-31T13:19:53;2.28;;;1.38;;
12212;SDS011;6169;44.158;22.788;2023-03-31T13:30:53;2.92;;;1.92;;
12212;SDS011;6169;44.158;22.788;2023-03-31T13:41:29;5.05;;;1.60;;
12212;SDS011;6169;44.158;22.788;2023-03-31T13:46:51;3.28;;;1.25;;
12212;SDS011;6169;44.158;22.788;2023-03-31T13:52:08;3.15;;;1.83;;
12212;SDS011;6169;44.158;22.788;2023-03-31T13:57:19;2.15;;;1.10;;
12212;SDS011;6169;44.158;22.788;2023-03-31T14:08:16;2.08;;;1.88;;
12212;SDS011;6169;44.158;22.788;2023-03-31T14:13:25;2.92;;;1.33;;
12212;SDS011;6169;44.158;22.788;2023-03-31T14:18:29;1.65;;;1.55;;
12212;SDS011;6169;44.158;22.788;2023-03-31T14:23:37;3.05;;;1.75;;
12212;SDS011;6169;44.158;22.788;2023-03-31T14:28:53;18.90;;;10.38;;
12212;SDS011;6169;44.158;22.788;2023-03-31T14:34:21;3.40;;;2.05;;
12212;SDS011;6169;44.158;22.788;2023-03-31T14:39:35;3.95;;;1.73;;
12212;SDS011;6169;44.158;22.788;2023-03-31T14:44:41;4.78;;;2.15;;
12212;SDS011;6169;44.158;22.788;2023-03-31T14:49:46;7.40;;;1.90;;
12212;SDS011;6169;44.158;22.788;2023-03-31T14:54:48;2.80;;;1.95;;
12212;SDS011;6169;44.158;22.788;2023-03-31T14:59:54;4.18;;;2.05;;
12212;SDS011;6169;44.158;22.788;2023-03-31T15:04:58;3.75;;;2.17;;
12212;SDS011;6169;44.158;22.788;2023-03-31T15:10:04;3.13;;;1.77;;
12212;SDS011;6169;44.158;22.788;2023-03-31T15:15:09;6.32;;;2.50;;
12212;SDS011;6169;44.158;22.788;2023-03-31T15:20:25;4.25;;;2.63;;
12212;SDS011;6169;44.158;22.788;2023-03-31T15:25:31;5.30;;;2.70;;
12212;SDS011;6169;44.158;22.788;2023-03-31T15:30:37;7.32;;;4.07;;
12212;SDS011;6169;44.158;22.788;2023-03-31T15:35:41;4.68;;;3.40;;
12212;SDS011;6169;44.158;22.788;2023-03-31T15:40:44;5.35;;;3.88;;
12212;SDS011;6169;44.158;22.788;2023-03-31T15:45:53;3.30;;;2.75;;
12212;SDS011;6169;44.158;22.788;2023-03-31T15:50:59;9.95;;;4.38;;
12212;SDS011;6169;44.158;22.788;2023-03-31T15:56:03;18.38;;;10.48;;
12212;SDS011;6169;44.158;22.788;2023-03-31T16:01:06;23.52;;;9.00;;
12212;SDS011;6169;44.158;22.788;2023-03-31T16:06:14;11.50;;;7.78;;
12212;SDS011;6169;44.158;22.788;2023-03-31T16:11:20;8.13;;;2.90;;
12212;SDS011;6169;44.158;22.788;2023-03-31T16:16:27;7.38;;;3.75;;
12212;SDS011;6169;44.158;22.788;2023-03-31T16:21:34;25.08;;;13.95;;
12212;SDS011;6169;44.158;22.788;2023-03-31T16:31:42;13.38;;;4.30;;
12212;SDS011;6169;44.158;22.788;2023-03-31T16:36:46;4.10;;;3.00;;
12212;SDS011;6169;44.158;22.788;2023-03-31T16:41:48;8.52;;;5.60;;
12212;SDS011;6169;44.158;22.788;2023-03-31T16:46:50;11.88;;;7.45;;
12212;SDS011;6169;44.158;22.788;2023-03-31T16:51:54;18.15;;;10.15;;
12212;SDS011;6169;44.158;22.788;2023-03-31T16:56:56;54.58;;;11.35;;
12212;SDS011;6169;44.158;22.788;2023-03-31T17:01:59;17.15;;;8.07;;
12212;SDS011;6169;44.158;22.788;2023-03-31T17:07:02;18.63;;;9.18;;
12212;SDS011;6169;44.158;22.788;2023-03-31T17:12:05;14.65;;;8.95;;
12212;SDS011;6169;44.158;22.788;2023-03-31T17:17:07;20.25;;;10.55;;
12212;SDS011;6169;44.158;22.788;2023-03-31T17:22:11;23.55;;;11.88;;
12212;SDS011;6169;44.158;22.788;2023-03-31T17:27:13;22.17;;;11.90;;
12212;SDS011;6169;44.158;22.788;2023-03-31T17:32:15;13.93;;;7.45;;
12212;SDS011;6169;44.158;22.788;2023-03-31T17:37:19;10.88;;;5.80;;
12212;SDS011;6169;44.158;22.788;2023-03-31T17:42:22;16.13;;;7.50;;
12212;SDS011;6169;44.158;22.788;2023-03-31T17:47:24;13.90;;;7.18;;
12212;SDS011;6169;44.158;22.788;2023-03-31T17:52:28;13.82;;;6.82;;
12212;SDS011;6169;44.158;22.788;2023-03-31T17:57:30;8.75;;;4.88;;
12212;SDS011;6169;44.158;22.788;2023-03-31T18:02:34;11.45;;;7.35;;
12212;SDS011;6169;44.158;22.788;2023-03-31T18:07:38;11.20;;;7.00;;
12212;SDS011;6169;44.158;22.788;2023-03-31T18:12:40;14.48;;;8.07;;
12212;SDS011;6169;44.158;22.788;2023-03-31T18:17:42;21.83;;;14.55;;
12212;SDS011;6169;44.158;22.788;2023-03-31T18:22:46;13.90;;;7.63;;
12212;SDS011;6169;44.158;22.788;2023-03-31T18:27:48;19.58;;;12.57;;
12212;SDS011;6169;44.158;22.788;2023-03-31T18:32:51;17.20;;;9.77;;
12212;SDS011;6169;44.158;22.788;2023-03-31T18:37:55;12.52;;;8.27;;
12212;SDS011;6169;44.158;22.788;2023-03-31T18:42:58;12.55;;;8.25;;
12212;SDS011;6169;44.158;22.788;2023-03-31T18:48:02;15.45;;;10.88;;
12212;SDS011;6169;44.158;22.788;2023-03-31T18:53:05;11.77;;;9.27;;
12212;SDS011;6169;44.158;22.788;2023-03-31T18:58:08;13.68;;;9.65;;
12212;SDS011;6169;44.158;22.788;2023-03-31T19:03:10;11.85;;;8.68;;
12212;SDS011;6169;44.158;22.788;2023-03-31T19:08:14;13.40;;;9.25;;
12212;SDS011;6169;44.158;22.788;2023-03-31T19:13:16;19.20;;;9.95;;
12212;SDS011;6169;44.158;22.788;2023-03-31T19:18:18;9.80;;;7.38;;
12212;SDS011;6169;44.158;22.788;2023-03-31T19:23:23;11.55;;;7.07;;
12212;SDS011;6169;44.158;22.788;2023-03-31T19:28:25;9.90;;;6.38;;
12212;SDS011;6169;44.158;22.788;2023-03-31T19:33:29;10.25;;;7.25;;
12212;SDS011;6169;44.158;22.788;2023-03-31T19:38:33;10.30;;;6.57;;
12212;SDS011;6169;44.158;22.788;2023-03-31T19:43:35;23.10;;;9.07;;
12212;SDS011;6169;44.158;22.788;2023-03-31T19:48:38;12.45;;;7.35;;
12212;SDS011;6169;44.158;22.788;2023-03-31T19:53:42;8.60;;;5.75;;
12212;SDS011;6169;44.158;22.788;2023-03-31T19:58:44;11.80;;;7.05;;
12212;SDS011;6169;44.158;22.788;2023-03-31T20:03:49;10.88;;;6.95;;
12212;SDS011;6169;44.158;22.788;2023-03-31T20:08:53;13.52;;;8.60;;
12212;SDS011;6169;44.158;22.788;2023-03-31T20:13:57;12.95;;;7.93;;
12212;SDS011;6169;44.158;22.788;2023-03-31T20:19:00;12.95;;;8.38;;
12212;SDS011;6169;44.158;22.788;2023-03-31T20:24:06;17.58;;;11.00;;
12212;SDS011;6169;44.158;22.788;2023-03-31T20:29:11;19.92;;;10.35;;
12212;SDS011;6169;44.158;22.788;2023-03-31T20:34:14;12.10;;;8.55;;
12212;SDS011;6169;44.158;22.788;2023-03-31T20:39:19;13.68;;;8.20;;
12212;SDS011;6169;44.158;22.788;2023-03-31T20:44:21;11.45;;;8.20;;
12212;SDS011;6169;44.158;22.788;2023-03-31T20:49:24;11.65;;;7.13;;
12212;SDS011;6169;44.158;22.788;2023-03-31T20:54:28;14.07;;;8.73;;
12212;SDS011;6169;44.158;22.788;2023-03-31T20:59:30;12.23;;;9.38;;
12212;SDS011;6169;44.158;22.788;2023-03-31T21:04:33;9.65;;;7.50;;
12212;SDS011;6169;44.158;22.788;2023-03-31T21:09:36;11.75;;;9.15;;
12212;SDS011;6169;44.158;22.788;2023-03-31T21:14:38;14.73;;;8.40;;
12212;SDS011;6169;44.158;22.788;2023-03-31T21:19:40;10.77;;;7.70;;
12212;SDS011;6169;44.158;22.788;2023-03-31T21:24:44;8.75;;;6.35;;
12212;SDS011;6169;44.158;22.788;2023-03-31T21:29:46;14.50;;;10.00;;
12212;SDS011;6169;44.158;22.788;2023-03-31T21:34:48;23.25;;;10.63;;
12212;SDS011;6169;44.158;22.788;2023-03-31T21:39:52;29.60;;;18.20;;
12212;SDS011;6169;44.158;22.788;2023-03-31T21:44:54;27.08;;;16.60;;
12212;SDS011;6169;44.158;22.788;2023-03-31T21:49:58;22.23;;;13.27;;
12212;SDS011;6169;44.158;22.788;2023-03-31T21:55:02;16.52;;;11.50;;
12212;SDS011;6169;44.158;22.788;2023-03-31T22:00:05;20.95;;;13.40;;
12212;SDS011;6169;44.158;22.788;2023-03-31T22:05:11;17.73;;;11.40;;
12212;SDS011;6169;44.158;22.788;2023-03-31T22:10:15;20.65;;;14.30;;
12212;SDS011;6169;44.158;22.788;2023-03-31T22:15:17;17.73;;;12.48;;
12212;SDS011;6169;44.158;22.788;2023-03-31T22:20:19;21.40;;;13.50;;
12212;SDS011;6169;44.158;22.788;2023-03-31T22:25:23;15.65;;;11.90;;
12212;SDS011;6169;44.158;22.788;2023-03-31T22:30:26;17.90;;;12.07;;
12212;SDS011;6169;44.158;22.788;2023-03-31T22:35:28;16.23;;;11.20;;
12212;SDS011;6169;44.158;22.788;2023-03-31T22:40:31;17.58;;;11.13;;
12212;SDS011;6169;44.158;22.788;2023-03-31T22:45:35;15.05;;;10.73;;
12212;SDS011;6169;44.158;22.788;2023-03-31T22:50:38;14.10;;;10.82;;
12212;SDS011;6169;44.158;22.788;2023-03-31T22:55:43;13.95;;;10.75;;
12212;SDS011;6169;44.158;22.788;2023-03-31T23:00:53;14.90;;;10.68;;
12212;SDS011;6169;44.158;22.788;2023-03-31T23:05:56;14.77;;;11.18;;
12212;SDS011;6169;44.158;22.788;2023-03-31T23:11:06;15.75;;;11.38;;
12212;SDS011;6169;44.158;22.788;2023-03-31T23:16:11;14.18;;;11.05;;
12212;SDS011;6169;44.158;22.788;2023-03-31T23:21:17;15.00;;;11.07;;
12212;SDS011;6169;44.158;22.788;2023-03-31T23:26:24;15.95;;;11.55;;
12212;SDS011;6169;44.158;22.788;2023-03-31T23:31:27;20.88;;;12.50;;
12212;SDS011;6169;44.158;22.788;2023-03-31T23:36:31;15.23;;;10.77;;
12212;SDS011;6169;44.158;22.788;2023-03-31T23:41:34;17.00;;;11.50;;
12212;SDS011;6169;44.158;22.788;2023-03-31T23:46:36;18.17;;;12.43;;
12212;SDS011;6169;44.158;22.788;2023-03-31T23:51:41;14.85;;;11.57;;
12212;SDS011;6169;44.158;22.788;2023-03-31T23:56:44;16.73;;;12.02;;
